Time;durP1;ratioP1;P1;durP2;ratioP2;P2;SDS_P1;SDS_P2;PMS_P1;PMS_P2;Temp;Humidity;BMP_temperature;BMP_pressure;BME280_temperature;BME280_humidity;BME280_pressure;Samples;Min_cycle;Max_cycle;Signal;HPM_P1;HPM_P2
2022/01/05 00:02:08;;;;;;;2.10;1.90;;;9.50;99.90;;;;;;932087;148;27423;-71
2022/01/05 00:04:35;;;;;;;2.17;1.93;;;9.50;99.90;;;;;;945406;148;27259;-70
2022/01/05 00:07:02;;;;;;;2.10;1.90;;;9.50;99.90;;;;;;941792;148;27289;-71
2022/01/05 00:09:28;;;;;;;1.70;1.60;;;9.50;99.90;;;;;;953537;148;27458;-71
2022/01/05 00:11:55;;;;;;;2.40;2.17;;;9.50;99.90;;;;;;957881;147;27295;-70
2022/01/05 00:14:21;;;;;;;1.90;1.80;;;9.50;99.90;;;;;;943302;148;27448;-70
2022/01/05 00:16:48;;;;;;;1.83;1.73;;;9.50;99.90;;;;;;945657;148;27330;-71
2022/01/05 00:19:14;;;;;;;1.87;1.77;;;9.50;99.90;;;;;;939833;148;27347;-72
2022/01/05 00:21:41;;;;;;;2.50;2.30;;;9.50;99.90;;;;;;944902;149;27326;-72
2022/01/05 00:24:08;;;;;;;1.90;1.80;;;9.50;99.90;;;;;;946743;148;27294;-74
2022/01/05 00:26:34;;;;;;;1.90;1.73;;;9.50;99.90;;;;;;935726;149;27296;-71
2022/01/05 00:29:01;;;;;;;1.80;1.70;;;9.50;99.90;;;;;;950473;149;27337;-71
2022/01/05 00:31:27;;;;;;;1.80;1.70;;;9.50;99.90;;;;;;961513;146;27296;-71
2022/01/05 00:33:54;;;;;;;1.70;1.60;;;9.50;99.90;;;;;;943374;149;27367;-70
2022/01/05 00:36:21;;;;;;;1.67;1.57;;;9.50;99.90;;;;;;959314;146;27319;-73
2022/01/05 00:38:50;;;;;;;1.50;1.50;;;9.50;99.90;;;;;;964070;146;27307;-72
2022/01/05 00:41:16;;;;;;;1.90;1.80;;;9.50;99.90;;;;;;964263;146;27248;-70
2022/01/05 00:43:43;;;;;;;1.87;1.77;;;9.50;99.90;;;;;;951270;147;27315;-72
2022/01/05 00:46:09;;;;;;;1.60;1.50;;;9.50;99.90;;;;;;949963;148;27422;-73
2022/01/05 00:48:36;;;;;;;1.90;1.80;;;9.50;99.90;;;;;;954192;148;27338;-72
2022/01/05 00:51:03;;;;;;;1.60;1.50;;;9.60;99.90;;;;;;947950;148;27442;-71
2022/01/05 00:53:29;;;;;;;2.23;2.10;;;9.60;99.90;;;;;;939139;149;27473;-71
2022/01/05 00:55:56;;;;;;;1.87;1.57;;;9.60;99.90;;;;;;963684;146;27361;-71
2022/01/05 00:58:22;;;;;;;1.50;1.40;;;9.60;99.90;;;;;;962258;146;27364;-71
2022/01/05 01:00:49;;;;;;;1.70;1.60;;;9.60;99.90;;;;;;949188;149;27332;-70
2022/01/05 01:03:16;;;;;;;1.60;1.50;;;9.60;99.90;;;;;;971706;145;27289;-72
2022/01/05 01:05:42;;;;;;;1.60;1.50;;;9.60;99.90;;;;;;949138;149;27456;-72
2022/01/05 01:08:09;;;;;;;1.63;1.53;;;9.50;99.90;;;;;;952586;149;27726;-71
2022/01/05 01:10:35;;;;;;;2.00;1.90;;;9.50;99.90;;;;;;953678;149;27428;-71
2022/01/05 01:13:02;;;;;;;1.70;1.60;;;9.50;99.90;;;;;;946691;149;27379;-71
2022/01/05 01:15:28;;;;;;;1.70;1.60;;;9.50;99.90;;;;;;957214;149;27431;-70
2022/01/05 01:17:58;;;;;;;1.90;1.80;;;9.50;99.90;;;;;;948485;149;27287;-73
2022/01/05 01:20:25;;;;;;;2.03;1.83;;;9.50;99.90;;;;;;946969;149;27334;-71
2022/01/05 01:22:51;;;;;;;2.03;1.93;;;9.50;99.90;;;;;;946754;149;27432;-71
2022/01/05 01:25:18;;;;;;;2.00;1.90;;;9.50;99.90;;;;;;951431;149;27247;-70
2022/01/05 01:27:45;;;;;;;1.67;1.57;;;9.50;99.90;;;;;;949215;146;27392;-71
2022/01/05 01:30:11;;;;;;;1.80;1.70;;;9.50;99.90;;;;;;942427;147;27834;-71
2022/01/05 01:32:38;;;;;;;1.70;1.60;;;9.50;99.90;;;;;;914030;154;27356;-71
2022/01/05 01:35:04;;;;;;;2.77;1.80;;;9.50;99.90;;;;;;935565;149;27343;-70
2022/01/05 01:37:31;;;;;;;2.00;1.90;;;9.50;99.90;;;;;;935997;149;27428;-72
2022/01/05 01:39:57;;;;;;;1.80;1.70;;;9.50;99.90;;;;;;929402;150;27330;-71
2022/01/05 01:42:24;;;;;;;1.53;1.53;;;9.50;99.90;;;;;;938463;150;27281;-70
2022/01/05 01:44:51;;;;;;;1.50;1.40;;;9.50;99.90;;;;;;939348;149;27295;-72
2022/01/05 01:47:17;;;;;;;2.20;2.00;;;9.40;99.90;;;;;;944303;149;27295;-72
2022/01/05 01:49:44;;;;;;;1.60;1.50;;;9.40;99.90;;;;;;931230;149;27326;-70
2022/01/05 01:52:10;;;;;;;1.73;1.63;;;9.40;99.90;;;;;;942940;146;27408;-70
2022/01/05 01:54:38;;;;;;;1.50;1.40;;;9.40;99.90;;;;;;949773;146;27405;-70
2022/01/05 01:57:03;;;;;;;1.50;1.40;;;9.40;99.90;;;;;;946343;146;27408;-72
2022/01/05 01:59:30;;;;;;;1.30;1.30;;;9.50;99.90;;;;;;946139;149;27333;-70
2022/01/05 02:01:57;;;;;;;1.57;1.47;;;9.50;99.90;;;;;;941870;149;27314;-70
2022/01/05 02:04:23;;;;;;;1.07;1.07;;;9.50;99.90;;;;;;932066;150;27337;-74
2022/01/05 02:06:51;;;;;;;1.20;1.20;;;9.40;99.90;;;;;;939573;149;27327;-73
2022/01/05 02:09:19;;;;;;;1.00;1.00;;;9.50;99.90;;;;;;932211;149;27341;-73
2022/01/05 02:11:46;;;;;;;1.17;1.10;;;9.40;99.90;;;;;;943568;149;27482;-74
2022/01/05 02:14:12;;;;;;;1.13;1.13;;;9.50;99.90;;;;;;935078;151;27369;-73
2022/01/05 02:16:43;;;;;;;1.20;1.20;;;9.40;99.90;;;;;;940036;149;27416;-70
2022/01/05 02:19:08;;;;;;;1.10;1.10;;;9.50;99.90;;;;;;930625;149;27404;-72
2022/01/05 02:21:42;;;;;;;1.20;1.10;;;9.50;99.90;;;;;;941088;149;27341;-70
2022/01/05 02:24:07;;;;;;;1.20;1.10;;;9.50;99.90;;;;;;940825;149;27309;-71
2022/01/05 02:26:34;;;;;;;1.20;1.07;;;9.50;99.90;;;;;;936551;149;27811;-72
2022/01/05 02:29:00;;;;;;;1.37;1.27;;;9.50;99.90;;;;;;948223;147;27506;-71
2022/01/05 02:31:27;;;;;;;1.30;1.20;;;9.50;99.90;;;;;;949687;147;27262;-71
2022/01/05 02:33:53;;;;;;;1.30;1.20;;;9.50;99.90;;;;;;962506;147;27360;-70
2022/01/05 02:36:21;;;;;;;1.27;1.10;;;9.50;99.90;;;;;;943088;147;27324;-72
2022/01/05 02:38:49;;;;;;;0.90;0.90;;;9.50;99.90;;;;;;920155;150;27452;-72
2022/01/05 02:41:22;;;;;;;1.17;1.07;;;9.50;99.90;;;;;;930246;149;27364;-72
2022/01/05 02:43:48;;;;;;;1.10;1.00;;;9.50;99.90;;;;;;921094;149;27980;-70
2022/01/05 02:46:15;;;;;;;0.97;0.90;;;9.50;99.90;;;;;;970682;147;27378;-71
2022/01/05 02:48:41;;;;;;;1.13;1.03;;;9.50;99.90;;;;;;919984;150;27346;-70
2022/01/05 02:51:08;;;;;;;0.90;0.90;;;9.40;99.90;;;;;;941469;147;27390;-70
2022/01/05 02:53:34;;;;;;;1.10;1.10;;;9.40;99.90;;;;;;944915;147;27388;-71
2022/01/05 02:56:01;;;;;;;0.90;0.90;;;9.50;99.90;;;;;;962425;147;27788;-72
2022/01/05 02:58:28;;;;;;;1.47;0.97;;;9.50;99.90;;;;;;942455;149;27311;-70
2022/01/05 03:00:54;;;;;;;1.10;1.00;;;9.40;99.90;;;;;;929163;149;27450;-70
2022/01/05 03:03:21;;;;;;;1.20;1.10;;;9.40;99.90;;;;;;952999;149;27426;-79
2022/01/05 03:05:47;;;;;;;0.87;0.87;;;9.50;99.90;;;;;;946039;149;27322;-80
2022/01/05 03:08:14;;;;;;;0.70;0.70;;;9.50;99.90;;;;;;929849;149;27366;-77
2022/01/05 03:10:41;;;;;;;0.63;0.53;;;9.40;99.90;;;;;;949513;149;27327;-80
2022/01/05 03:13:07;;;;;;;0.83;0.83;;;9.40;99.90;;;;;;945397;149;27355;-80
2022/01/05 03:15:35;;;;;;;0.63;0.63;;;9.30;99.90;;;;;;946411;149;27395;-80
2022/01/05 03:18:00;;;;;;;0.67;0.60;;;9.30;99.30;;;;;;937069;149;27407;-78
2022/01/05 03:20:28;;;;;;;0.53;0.53;;;9.20;98.70;;;;;;943487;149;27332;-81
2022/01/05 03:22:53;;;;;;;0.87;0.70;;;9.10;98.30;;;;;;936043;149;27372;-79
2022/01/05 03:25:20;;;;;;;2.70;0.70;;;9.00;97.90;;;;;;948229;149;27314;-79
2022/01/05 03:27:47;;;;;;;1.50;0.40;;;8.80;97.80;;;;;;935537;152;27364;-81
2022/01/05 03:30:13;;;;;;;0.40;0.40;;;8.70;97.60;;;;;;925819;149;27435;-80
2022/01/05 03:32:59;;;;;;;0.47;0.47;;;8.60;97.60;;;;;;936573;152;27274;-78
2022/01/05 03:35:06;;;;;;;2.00;0.80;;;8.50;97.80;;;;;;934402;149;27322;-80
2022/01/05 03:37:36;;;;;;;0.47;0.47;;;8.30;97.90;;;;;;941352;151;27936;-80
2022/01/05 03:40:03;;;;;;;0.53;0.53;;;8.20;98.10;;;;;;954482;147;27461;-80
2022/01/05 03:42:29;;;;;;;0.50;0.50;;;8.10;98.20;;;;;;941199;149;27377;-80
2022/01/05 03:44:56;;;;;;;0.70;0.70;;;8.10;98.40;;;;;;944908;147;27268;-80
2022/01/05 03:47:22;;;;;;;0.60;0.60;;;8.10;98.60;;;;;;944745;149;27364;-78
2022/01/05 03:49:49;;;;;;;0.50;0.50;;;8.00;98.70;;;;;;934448;153;27364;-80
2022/01/05 03:52:15;;;;;;;0.57;0.57;;;7.90;98.90;;;;;;927075;150;27344;-78
2022/01/05 03:54:42;;;;;;;1.03;0.90;;;7.90;99.00;;;;;;943126;149;27274;-79
2022/01/05 03:57:09;;;;;;;1.10;0.70;;;7.90;99.10;;;;;;926914;151;27331;-77
2022/01/05 03:59:38;;;;;;;0.50;0.50;;;7.90;99.20;;;;;;934220;151;27342;-80
2022/01/05 04:02:05;;;;;;;0.60;0.60;;;7.90;99.20;;;;;;950730;149;27243;-80
2022/01/05 04:04:31;;;;;;;0.60;0.60;;;7.90;99.30;;;;;;944129;149;27343;-80
2022/01/05 04:06:58;;;;;;;0.50;0.50;;;7.90;99.30;;;;;;949438;149;27414;-79
2022/01/05 04:09:24;;;;;;;1.53;0.73;;;7.90;99.30;;;;;;940877;149;27347;-78
2022/01/05 04:11:51;;;;;;;0.67;0.50;;;7.90;99.30;;;;;;937924;148;27377;-78
2022/01/05 04:14:17;;;;;;;0.50;0.50;;;7.90;99.20;;;;;;932153;150;27371;-79
2022/01/05 04:16:44;;;;;;;0.90;0.90;;;7.90;99.20;;;;;;917334;150;27369;-79
2022/01/05 04:19:11;;;;;;;0.80;0.80;;;7.90;99.20;;;;;;927887;150;27335;-80
2022/01/05 04:21:37;;;;;;;0.53;0.53;;;7.90;99.10;;;;;;946363;150;27260;-80
2022/01/05 04:24:04;;;;;;;0.67;0.67;;;7.90;99.00;;;;;;964593;148;27334;-79
2022/01/05 04:26:30;;;;;;;0.50;0.50;;;7.80;98.90;;;;;;950269;148;27361;-80
2022/01/05 04:28:57;;;;;;;1.10;1.00;;;7.80;98.70;;;;;;952784;148;27381;-80
2022/01/05 04:31:24;;;;;;;0.87;0.70;;;7.80;98.70;;;;;;947904;150;27425;-77
2022/01/05 04:33:50;;;;;;;1.57;0.80;;;7.80;98.60;;;;;;954033;148;27303;-79
2022/01/05 04:36:17;;;;;;;0.80;0.80;;;7.80;98.50;;;;;;927797;150;27277;-79
2022/01/05 04:38:43;;;;;;;0.80;0.67;;;7.80;98.40;;;;;;933264;151;27325;-80
2022/01/05 04:41:10;;;;;;;0.60;0.60;;;7.80;98.30;;;;;;935570;149;27365;-77
2022/01/05 04:43:36;;;;;;;1.07;0.60;;;7.70;98.30;;;;;;937172;147;27333;-80
2022/01/05 04:46:03;;;;;;;1.47;1.00;;;7.70;98.30;;;;;;948934;147;27384;-80
2022/01/05 04:48:32;;;;;;;1.47;1.00;;;7.70;98.30;;;;;;945087;148;27374;-82
2022/01/05 04:50:59;;;;;;;0.97;0.83;;;7.70;98.30;;;;;;959357;147;27298;-83
2022/01/05 04:53:25;;;;;;;2.63;1.00;;;7.70;98.40;;;;;;954231;147;27437;-82
2022/01/05 04:55:53;;;;;;;0.93;0.60;;;7.70;98.40;;;;;;948145;147;27282;-82
2022/01/05 04:58:18;;;;;;;1.50;0.80;;;7.70;98.30;;;;;;936194;149;27321;-79
2022/01/05 05:00:45;;;;;;;0.67;0.67;;;7.70;98.10;;;;;;931261;152;27434;-83
2022/01/05 05:03:12;;;;;;;0.73;0.70;;;7.70;97.90;;;;;;952158;147;27380;-82
2022/01/05 05:05:38;;;;;;;1.60;0.80;;;7.70;97.80;;;;;;948794;147;27367;-83
2022/01/05 05:08:05;;;;;;;2.07;0.80;;;7.70;97.60;;;;;;948074;149;28111;-82
2022/01/05 05:10:31;;;;;;;0.93;0.80;;;7.60;97.60;;;;;;940332;147;27356;-82
2022/01/05 05:12:58;;;;;;;2.63;1.40;;;7.60;97.60;;;;;;932172;149;27899;-83
2022/01/05 05:15:25;;;;;;;1.17;0.90;;;7.60;97.50;;;;;;952317;146;27332;-82
2022/01/05 05:17:51;;;;;;;1.30;0.80;;;7.60;97.50;;;;;;946846;147;27349;-82
2022/01/05 05:20:20;;;;;;;2.60;1.17;;;7.60;97.50;;;;;;941024;151;27288;-82
2022/01/05 05:22:47;;;;;;;1.43;0.87;;;7.60;97.50;;;;;;935249;149;27275;-81
2022/01/05 05:25:17;;;;;;;2.03;1.10;;;7.60;97.40;;;;;;935852;149;27415;-82
2022/01/05 05:27:43;;;;;;;2.33;1.00;;;7.60;97.40;;;;;;926662;152;27355;-83
2022/01/05 05:30:10;;;;;;;2.33;1.20;;;7.60;97.40;;;;;;937431;148;27340;-79
2022/01/05 05:32:36;;;;;;;1.30;1.10;;;7.60;97.50;;;;;;939579;151;27386;-82
2022/01/05 05:35:03;;;;;;;0.93;0.93;;;7.60;97.50;;;;;;933776;151;27483;-83
2022/01/05 05:37:29;;;;;;;4.70;1.30;;;7.60;97.50;;;;;;923485;152;27473;-83
2022/01/05 05:39:56;;;;;;;1.37;0.80;;;7.60;97.50;;;;;;941452;149;27425;-80
2022/01/05 05:42:28;;;;;;;1.57;1.07;;;7.60;97.50;;;;;;942244;152;27455;-83
2022/01/05 05:44:55;;;;;;;1.33;1.20;;;7.50;97.40;;;;;;943027;149;27395;-77
2022/01/05 05:47:21;;;;;;;1.70;1.60;;;7.60;97.30;;;;;;938781;152;27301;-83
2022/01/05 05:49:48;;;;;;;1.53;1.43;;;7.50;97.20;;;;;;943360;149;27473;-83
2022/01/05 05:52:14;;;;;;;2.70;1.70;;;7.50;97.10;;;;;;942271;152;27344;-82
2022/01/05 05:54:41;;;;;;;2.57;1.70;;;7.50;97.10;;;;;;943306;149;27301;-81
2022/01/05 05:57:08;;;;;;;1.87;1.73;;;7.40;97.00;;;;;;949892;149;27359;-84
2022/01/05 05:59:34;;;;;;;2.47;1.90;;;7.40;96.80;;;;;;930166;152;27324;-84
2022/01/05 06:02:01;;;;;;;3.47;2.43;;;7.40;96.90;;;;;;946506;148;27395;-82
2022/01/05 06:04:29;;;;;;;2.60;2.07;;;7.40;96.90;;;;;;957893;148;27793;-83
2022/01/05 06:06:54;;;;;;;3.13;2.87;;;7.30;96.90;;;;;;932578;151;27461;-84
2022/01/05 06:09:21;;;;;;;2.53;2.13;;;7.30;96.90;;;;;;952001;148;27269;-83
2022/01/05 06:11:47;;;;;;;3.53;2.03;;;7.30;96.90;;;;;;948839;148;27341;-82
2022/01/05 06:14:14;;;;;;;3.43;1.80;;;7.30;96.80;;;;;;944618;148;27422;-83
2022/01/05 06:16:43;;;;;;;4.97;1.97;;;7.30;96.80;;;;;;948330;149;27358;-84
2022/01/05 06:19:10;;;;;;;3.00;2.03;;;7.20;96.70;;;;;;963679;148;27277;-80
2022/01/05 06:21:36;;;;;;;2.30;1.90;;;7.20;96.70;;;;;;949818;148;27361;-79
2022/01/05 06:24:03;;;;;;;4.07;2.00;;;7.20;96.80;;;;;;957073;148;27270;-82
2022/01/05 06:26:29;;;;;;;2.40;1.80;;;7.20;96.70;;;;;;948016;149;27305;-82
2022/01/05 06:28:56;;;;;;;4.20;2.57;;;7.20;96.70;;;;;;935842;149;27354;-83
2022/01/05 06:31:23;;;;;;;3.70;1.80;;;7.20;96.60;;;;;;927790;152;27363;-83
2022/01/05 06:33:49;;;;;;;4.77;2.00;;;7.20;96.50;;;;;;949366;148;27228;-82
2022/01/05 06:36:16;;;;;;;3.43;1.80;;;7.20;96.30;;;;;;940579;149;27317;-82
2022/01/05 06:38:42;;;;;;;5.13;2.50;;;7.10;96.20;;;;;;947287;149;27412;-83
2022/01/05 06:41:09;;;;;;;6.53;1.90;;;7.10;95.90;;;;;;940278;148;27318;-82
2022/01/05 06:43:36;;;;;;;3.00;1.53;;;7.10;95.60;;;;;;945763;149;27335;-84
2022/01/05 06:46:02;;;;;;;6.70;1.83;;;7.00;95.20;;;;;;938550;148;27441;-83
2022/01/05 06:48:29;;;;;;;2.23;1.60;;;7.00;94.90;;;;;;934813;151;27455;-83
2022/01/05 06:50:55;;;;;;;2.67;1.50;;;6.90;94.60;;;;;;953974;149;27313;-84
2022/01/05 06:53:22;;;;;;;3.30;1.40;;;6.90;94.30;;;;;;950011;149;27307;-83
2022/01/05 06:55:48;;;;;;;4.00;1.73;;;6.80;94.10;;;;;;955278;149;27422;-82
2022/01/05 06:58:15;;;;;;;6.03;1.97;;;6.70;94.10;;;;;;938056;149;27340;-81
2022/01/05 07:00:42;;;;;;;3.27;1.80;;;6.70;94.10;;;;;;947424;149;27976;-82
2022/01/05 07:03:10;;;;;;;2.87;1.60;;;6.60;94.10;;;;;;934614;151;27348;-82
2022/01/05 07:05:38;;;;;;;2.17;1.60;;;6.50;94.10;;;;;;944062;149;27451;-84
2022/01/05 07:08:04;;;;;;;1.90;1.50;;;6.50;94.20;;;;;;949570;149;27310;-84
2022/01/05 07:10:31;;;;;;;3.07;1.43;;;6.40;94.10;;;;;;943677;150;27393;-82
2022/01/05 07:12:57;;;;;;;2.40;1.63;;;6.40;94.00;;;;;;942761;149;27417;-84
2022/01/05 07:15:25;;;;;;;2.30;1.10;;;6.40;93.80;;;;;;941172;148;27357;-80
2022/01/05 07:17:50;;;;;;;1.93;1.50;;;6.30;93.80;;;;;;948283;149;27387;-84
2022/01/05 07:20:17;;;;;;;2.57;1.50;;;6.30;93.80;;;;;;940552;150;27320;-80
2022/01/05 07:22:44;;;;;;;1.93;1.33;;;6.30;93.90;;;;;;934963;149;27380;-81
2022/01/05 07:25:10;;;;;;;5.73;2.00;;;6.30;93.90;;;;;;935644;151;27372;-83
2022/01/05 07:27:37;;;;;;;5.07;1.53;;;6.30;93.90;;;;;;934540;152;27277;-83
2022/01/05 07:30:04;;;;;;;1.70;1.60;;;6.30;93.90;;;;;;939034;149;27466;-81
2022/01/05 07:32:30;;;;;;;1.70;1.20;;;6.30;93.90;;;;;;947206;148;27404;-83
2022/01/05 07:34:57;;;;;;;1.73;1.20;;;6.40;93.90;;;;;;939569;151;27450;-82
2022/01/05 07:37:23;;;;;;;3.40;1.30;;;6.40;93.80;;;;;;936224;150;27584;-82
2022/01/05 07:39:50;;;;;;;3.60;1.47;;;6.40;93.60;;;;;;942110;150;27343;-81
2022/01/05 07:42:16;;;;;;;1.60;1.50;;;6.40;93.40;;;;;;938215;150;27368;-83
2022/01/05 07:44:43;;;;;;;3.83;1.63;;;6.40;93.40;;;;;;937559;153;27340;-83
2022/01/05 07:47:09;;;;;;;2.07;1.43;;;6.40;93.30;;;;;;951559;149;27265;-84
2022/01/05 07:49:39;;;;;;;3.77;1.40;;;6.40;93.20;;;;;;964237;148;27265;-83
2022/01/05 07:52:05;;;;;;;2.60;1.30;;;6.30;93.20;;;;;;943852;148;27390;-83
2022/01/05 07:54:32;;;;;;;4.87;2.10;;;6.30;93.20;;;;;;939990;148;27272;-80
2022/01/05 07:57:02;;;;;;;2.63;1.40;;;6.30;93.60;;;;;;944955;148;27335;-83
2022/01/05 07:59:28;;;;;;;1.40;1.30;;;6.30;93.10;;;;;;939855;150;27329;-82
2022/01/05 08:01:55;;;;;;;4.53;1.50;;;6.30;93.10;;;;;;943399;150;27319;-83
2022/01/05 08:04:21;;;;;;;1.77;1.20;;;6.30;93.10;;;;;;949805;150;27336;-83
2022/01/05 08:06:48;;;;;;;3.37;1.20;;;6.30;93.10;;;;;;946986;150;27284;-83
2022/01/05 08:09:14;;;;;;;2.80;1.90;;;6.30;93.40;;;;;;940529;150;27322;-80
2022/01/05 08:11:41;;;;;;;2.03;1.30;;;6.30;93.10;;;;;;943463;149;27360;-83
2022/01/05 08:14:08;;;;;;;3.97;1.53;;;6.30;93.10;;;;;;941439;149;27316;-83
2022/01/05 08:16:37;;;;;;;3.03;1.70;;;6.30;93.10;;;;;;940438;149;27307;-83
2022/01/05 08:19:04;;;;;;;3.80;1.90;;;6.30;93.00;;;;;;943838;150;27421;-83
2022/01/05 08:21:30;;;;;;;4.23;1.63;;;6.30;93.00;;;;;;944829;149;27447;-83
2022/01/05 08:23:57;;;;;;;4.67;1.70;;;6.30;92.70;;;;;;947078;150;27300;-81
2022/01/05 08:26:23;;;;;;;2.10;1.50;;;6.30;92.60;;;;;;939863;150;27344;-82
2022/01/05 08:28:50;;;;;;;3.50;1.90;;;6.30;92.60;;;;;;944001;149;27405;-83
2022/01/05 08:31:16;;;;;;;6.23;2.00;;;6.20;92.60;;;;;;938443;148;27463;-83
2022/01/05 08:33:46;;;;;;;4.20;1.87;;;6.20;93.10;;;;;;955500;147;27366;-79
2022/01/05 08:36:13;;;;;;;4.20;1.30;;;6.20;92.80;;;;;;959184;147;27278;-83
2022/01/05 08:38:39;;;;;;;1.70;1.17;;;6.20;92.80;;;;;;954927;147;27326;-82
2022/01/05 08:41:06;;;;;;;2.00;1.20;;;6.20;92.90;;;;;;954634;147;27350;-82
2022/01/05 08:43:33;;;;;;;2.80;1.20;;;6.20;92.90;;;;;;951949;147;27334;-82
2022/01/05 08:45:59;;;;;;;3.60;1.87;;;6.20;93.00;;;;;;957096;147;27264;-82
2022/01/05 08:48:26;;;;;;;2.03;1.43;;;6.20;93.10;;;;;;946139;149;27359;-83
2022/01/05 08:50:52;;;;;;;2.30;1.43;;;6.30;93.70;;;;;;940437;149;27440;-84
2022/01/05 08:53:19;;;;;;;3.03;1.40;;;6.40;93.80;;;;;;961233;147;27263;-84
2022/01/05 08:55:45;;;;;;;1.90;1.50;;;6.60;94.20;;;;;;948278;147;27398;-84
2022/01/05 08:58:12;;;;;;;7.13;1.93;;;6.70;94.80;;;;;;950198;147;27472;-82
2022/01/05 09:00:38;;;;;;;2.03;1.40;;;6.90;94.40;;;;;;947471;147;27437;-84
2022/01/05 09:03:05;;;;;;;3.30;1.40;;;7.00;93.90;;;;;;953909;149;27360;-79
2022/01/05 09:05:32;;;;;;;3.10;2.17;;;7.10;93.30;;;;;;944873;149;27292;-81
2022/01/05 09:07:58;;;;;;;3.03;1.67;;;7.20;92.70;;;;;;955384;147;27315;-83
2022/01/05 09:10:25;;;;;;;1.90;1.43;;;7.20;92.10;;;;;;942414;147;27854;-80
2022/01/05 09:12:53;;;;;;;4.00;1.87;;;7.20;91.80;;;;;;958196;147;27377;-85
2022/01/05 09:15:18;;;;;;;3.60;1.73;;;7.20;91.60;;;;;;957097;147;27320;-83
2022/01/05 09:17:45;;;;;;;3.50;1.60;;;7.10;91.40;;;;;;956439;147;27315;-82
2022/01/05 09:20:11;;;;;;;2.90;1.87;;;7.10;91.30;;;;;;949576;149;27328;-82
2022/01/05 09:22:38;;;;;;;2.90;2.10;;;7.00;91.20;;;;;;956375;149;27271;-84
2022/01/05 09:25:07;;;;;;;3.90;1.67;;;7.00;91.30;;;;;;952006;147;27367;-82
2022/01/05 09:27:34;;;;;;;1.63;1.40;;;7.00;91.40;;;;;;970765;147;27371;-84
2022/01/05 09:30:00;;;;;;;3.03;1.50;;;6.90;91.60;;;;;;949983;147;27312;-83
2022/01/05 09:32:27;;;;;;;3.63;2.00;;;6.90;91.80;;;;;;952790;147;27298;-83
2022/01/05 09:34:53;;;;;;;5.03;1.80;;;6.90;92.30;;;;;;937356;150;27410;-84
2022/01/05 09:37:31;;;;;;;1.97;1.40;;;7.00;92.60;;;;;;931401;150;27409;-84
2022/01/05 09:42:37;;;;;;;2.17;1.57;;;7.20;93.30;;;;;;936035;150;27354;-81
2022/01/05 09:45:16;;;;;;;5.17;2.10;;;7.40;93.40;;;;;;939803;150;27323;-83
2022/01/05 09:48:02;;;;;;;4.37;1.97;;;7.50;93.10;;;;;;929106;150;27420;-84
2022/01/05 09:50:28;;;;;;;2.90;1.83;;;7.60;92.70;;;;;;943003;150;27408;-84
2022/01/05 09:52:55;;;;;;;4.00;1.93;;;7.80;92.70;;;;;;932056;150;27357;-83
2022/01/05 09:55:21;;;;;;;4.17;2.07;;;7.80;92.50;;;;;;940049;150;27312;-80
2022/01/05 09:57:47;;;;;;;3.70;1.63;;;7.90;92.30;;;;;;927608;153;27419;-84
2022/01/05 10:00:14;;;;;;;2.93;1.77;;;8.00;92.00;;;;;;924118;153;27462;-83
2022/01/05 10:02:40;;;;;;;3.37;1.80;;;8.10;91.70;;;;;;924759;150;27319;-83
2022/01/05 10:05:10;;;;;;;4.37;2.03;;;8.10;91.40;;;;;;942656;150;27373;-83
2022/01/05 10:07:38;;;;;;;2.33;1.47;;;8.20;91.20;;;;;;939852;150;27358;-81
2022/01/05 10:10:03;;;;;;;2.17;1.70;;;8.20;91.00;;;;;;925551;150;27402;-82
2022/01/05 10:12:32;;;;;;;2.57;1.63;;;8.30;90.80;;;;;;926134;153;27401;-81
2022/01/05 10:14:59;;;;;;;4.30;2.07;;;8.30;90.50;;;;;;934355;150;27386;-83
2022/01/05 10:17:26;;;;;;;5.33;2.17;;;8.30;90.40;;;;;;939779;150;27295;-82
2022/01/05 10:19:55;;;;;;;3.27;2.00;;;8.30;90.20;;;;;;941090;150;27292;-82
2022/01/05 10:22:28;;;;;;;3.77;2.10;;;8.30;90.00;;;;;;937822;148;27338;-82
2022/01/05 10:24:56;;;;;;;1.87;1.60;;;8.30;89.60;;;;;;948475;150;27347;-82
2022/01/05 10:27:21;;;;;;;3.93;2.13;;;8.30;89.10;;;;;;948473;150;28158;-82
2022/01/05 10:29:50;;;;;;;4.33;1.87;;;8.20;88.90;;;;;;933870;149;27856;-83
2022/01/05 10:32:17;;;;;;;3.03;1.80;;;8.20;88.80;;;;;;931371;150;27475;-83
2022/01/05 10:34:43;;;;;;;5.97;1.80;;;8.20;88.30;;;;;;943866;149;27395;-83
2022/01/05 10:37:11;;;;;;;3.20;1.77;;;8.10;87.90;;;;;;951906;149;27284;-82
2022/01/05 10:39:39;;;;;;;4.73;2.10;;;8.10;88.10;;;;;;934801;149;27339;-82
2022/01/05 10:42:03;;;;;;;4.43;2.23;;;8.10;88.00;;;;;;942325;149;27328;-82
2022/01/05 10:44:30;;;;;;;2.43;1.67;;;8.10;87.80;;;;;;949910;149;27302;-82
2022/01/05 10:46:56;;;;;;;5.30;2.27;;;8.00;88.00;;;;;;944172;148;27385;-82
2022/01/05 10:49:38;;;;;;;5.03;2.03;;;8.00;88.00;;;;;;938746;149;27320;-80
2022/01/05 10:52:29;;;;;;;4.33;2.20;;;8.00;87.90;;;;;;929430;149;27386;-80
2022/01/05 10:54:55;;;;;;;3.40;2.10;;;8.00;88.10;;;;;;942470;151;27317;-82
2022/01/05 10:57:22;;;;;;;4.03;2.10;;;8.00;88.50;;;;;;929796;149;27359;-81
2022/01/05 10:59:49;;;;;;;4.80;2.10;;;8.00;87.90;;;;;;937237;149;27289;-83
2022/01/05 11:02:27;;;;;;;3.23;1.80;;;7.90;87.60;;;;;;933834;151;27482;-82
2022/01/05 11:05:02;;;;;;;3.77;2.00;;;7.90;87.70;;;;;;937074;149;27345;-81
2022/01/05 11:07:31;;;;;;;4.90;2.00;;;7.90;87.70;;;;;;937566;149;27370;-82
2022/01/05 11:09:58;;;;;;;5.60;2.03;;;7.90;87.40;;;;;;941536;149;27240;-81
2022/01/05 11:12:36;;;;;;;3.10;2.00;;;7.90;87.50;;;;;;941406;149;27439;-82
2022/01/05 11:15:31;;;;;;;2.63;1.73;;;7.90;86.70;;;;;;947585;149;27373;-82
2022/01/05 11:18:08;;;;;;;4.47;1.80;;;7.90;87.30;;;;;;934309;152;27453;-82
2022/01/05 11:20:32;;;;;;;4.63;2.23;;;7.90;86.40;;;;;;944322;149;27407;-82
2022/01/05 11:22:59;;;;;;;2.73;1.17;;;7.80;86.00;;;;;;938748;149;27363;-80
2022/01/05 11:25:26;;;;;;;4.10;1.87;;;7.80;86.70;;;;;;931756;152;27365;-81
2022/01/05 11:27:52;;;;;;;3.53;1.83;;;7.80;86.40;;;;;;943034;152;27322;-80
2022/01/05 11:30:19;;;;;;;4.77;2.10;;;7.70;86.10;;;;;;944074;149;27386;-80
2022/01/05 11:32:45;;;;;;;3.70;2.13;;;7.70;86.30;;;;;;940964;152;27434;-81
2022/01/05 11:35:12;;;;;;;3.47;2.00;;;7.70;86.50;;;;;;952292;149;27931;-82
2022/01/05 11:37:38;;;;;;;4.37;2.03;;;7.70;86.10;;;;;;935781;150;27386;-81
2022/01/05 11:40:05;;;;;;;4.77;2.10;;;7.80;86.40;;;;;;937388;150;27326;-81
2022/01/05 11:42:32;;;;;;;4.53;2.00;;;7.80;86.00;;;;;;935138;148;27274;-81
2022/01/05 11:44:58;;;;;;;4.70;2.27;;;7.80;85.50;;;;;;935152;150;27892;-81
2022/01/05 11:47:25;;;;;;;3.13;2.00;;;7.80;85.30;;;;;;931987;150;27338;-81
2022/01/05 11:49:52;;;;;;;4.00;1.90;;;7.80;84.90;;;;;;928688;150;27325;-80
2022/01/05 11:52:18;;;;;;;5.27;1.97;;;7.80;85.50;;;;;;936605;150;27403;-82
2022/01/05 11:55:03;;;;;;;2.93;1.80;;;7.80;86.00;;;;;;931860;152;27339;-82
2022/01/05 11:57:35;;;;;;;3.47;1.60;;;7.80;85.40;;;;;;932592;150;27329;-82
2022/01/05 12:00:17;;;;;;;2.03;1.73;;;7.80;85.60;;;;;;937086;150;27445;-81
2022/01/05 12:02:43;;;;;;;2.10;1.37;;;7.80;85.80;;;;;;927537;151;27385;-80
2022/01/05 12:05:10;;;;;;;4.33;1.93;;;7.80;86.20;;;;;;929913;150;28032;-81
2022/01/05 12:07:39;;;;;;;5.73;2.10;;;7.90;86.10;;;;;;925718;150;27305;-81
2022/01/05 12:10:12;;;;;;;2.50;1.63;;;7.90;86.00;;;;;;944725;150;27321;-80
2022/01/05 12:12:38;;;;;;;5.60;2.00;;;7.90;86.00;;;;;;930134;150;27325;-82
2022/01/05 12:15:05;;;;;;;3.53;1.53;;;7.90;85.30;;;;;;941036;150;27457;-82
2022/01/05 12:17:32;;;;;;;3.07;1.83;;;8.00;85.70;;;;;;932950;150;27432;-81
2022/01/05 12:19:58;;;;;;;2.97;1.53;;;8.00;85.30;;;;;;937388;150;27480;-82
2022/01/05 12:22:24;;;;;;;6.47;1.90;;;8.00;85.40;;;;;;934379;150;27338;-81
2022/01/05 12:25:00;;;;;;;2.83;1.20;;;8.00;85.20;;;;;;944471;150;27280;-77
2022/01/05 12:27:38;;;;;;;3.17;1.67;;;8.00;85.10;;;;;;939504;150;27379;-82
2022/01/05 12:30:17;;;;;;;4.40;1.70;;;8.00;85.30;;;;;;925245;150;27373;-83
2022/01/05 12:32:44;;;;;;;4.77;2.17;;;8.00;85.30;;;;;;940047;150;27307;-81
2022/01/05 12:35:17;;;;;;;5.60;2.07;;;8.10;85.80;;;;;;944762;149;27347;-79
2022/01/05 12:37:49;;;;;;;4.47;2.03;;;8.10;85.70;;;;;;947485;150;27344;-80
2022/01/05 12:40:21;;;;;;;5.47;2.30;;;8.10;85.20;;;;;;944456;150;27686;-80
2022/01/05 12:42:48;;;;;;;3.20;1.87;;;8.10;84.90;;;;;;949686;150;27348;-81
2022/01/05 12:45:45;;;;;;;2.87;1.80;;;8.20;84.60;;;;;;945496;149;27335;-78
2022/01/05 12:48:35;;;;;;;4.93;1.63;;;8.20;84.40;;;;;;939868;150;27456;-84
2022/01/05 12:51:12;;;;;;;6.20;2.10;;;8.20;84.20;;;;;;948618;150;27348;-83
2022/01/05 12:53:39;;;;;;;4.17;1.63;;;8.20;83.10;;;;;;939239;150;27431;-81
2022/01/05 12:56:05;;;;;;;3.70;1.60;;;8.10;83.60;;;;;;936651;150;27444;-82
2022/01/05 12:58:35;;;;;;;5.10;2.07;;;8.10;82.30;;;;;;941963;150;27459;-83
2022/01/05 13:01:01;;;;;;;6.50;2.17;;;8.10;83.10;;;;;;955006;149;27678;-83
2022/01/05 13:03:31;;;;;;;3.87;1.90;;;8.10;83.60;;;;;;950562;150;27377;-83